sensor_id;sensor_type;location;lat;lon;timestamp;P1;durP1;ratioP1;P2;durP2;ratioP2
39324;SDS011;25037;49.488;9.900;2023-06-04T00:01:10;5.85;;;1.75;;
39324;SDS011;25037;49.488;9.900;2023-06-04T00:03:42;3.20;;;1.45;;
39324;SDS011;25037;49.488;9.900;2023-06-04T00:06:09;4.20;;;1.63;;
39324;SDS011;25037;49.488;9.900;2023-06-04T00:08:37;5.05;;;1.88;;
39324;SDS011;25037;49.488;9.900;2023-06-04T00:11:03;3.38;;;1.40;;
39324;SDS011;25037;49.488;9.900;2023-06-04T00:13:30;5.88;;;2.25;;
39324;SDS011;25037;49.488;9.900;2023-06-04T00:15:57;4.50;;;1.80;;
39324;SDS011;25037;49.488;9.900;2023-06-04T00:18:24;5.68;;;2.42;;
39324;SDS011;25037;49.488;9.900;2023-06-04T00:20:51;3.78;;;2.13;;
39324;SDS011;25037;49.488;9.900;2023-06-04T00:23:18;5.38;;;2.38;;
39324;SDS011;25037;49.488;9.900;2023-06-04T00:25:45;4.65;;;2.05;;
39324;SDS011;25037;49.488;9.900;2023-06-04T00:28:11;5.90;;;2.00;;
39324;SDS011;25037;49.488;9.900;2023-06-04T00:30:38;5.40;;;2.10;;
39324;SDS011;25037;49.488;9.900;2023-06-04T00:33:05;6.25;;;2.22;;
39324;SDS011;25037;49.488;9.900;2023-06-04T00:35:32;4.65;;;2.25;;
39324;SDS011;25037;49.488;9.900;2023-06-04T00:37:59;4.75;;;2.58;;
39324;SDS011;25037;49.488;9.900;2023-06-04T00:40:26;6.15;;;1.80;;
39324;SDS011;25037;49.488;9.900;2023-06-04T00:42:52;5.57;;;2.50;;
39324;SDS011;25037;49.488;9.900;2023-06-04T00:45:21;4.22;;;1.80;;
39324;SDS011;25037;49.488;9.900;2023-06-04T00:47:52;4.07;;;1.75;;
39324;SDS011;25037;49.488;9.900;2023-06-04T00:50:19;6.75;;;1.98;;
39324;SDS011;25037;49.488;9.900;2023-06-04T00:52:47;3.67;;;1.30;;
39324;SDS011;25037;49.488;9.900;2023-06-04T00:55:16;3.28;;;1.33;;
39324;SDS011;25037;49.488;9.900;2023-06-04T00:57:45;5.25;;;1.73;;
39324;SDS011;25037;49.488;9.900;2023-06-04T01:00:12;4.40;;;1.63;;
39324;SDS011;25037;49.488;9.900;2023-06-04T01:02:40;4.28;;;2.03;;
39324;SDS011;25037;49.488;9.900;2023-06-04T01:07:39;3.20;;;1.15;;
39324;SDS011;25037;49.488;9.900;2023-06-04T01:10:07;2.78;;;1.40;;
39324;SDS011;25037;49.488;9.900;2023-06-04T01:12:34;4.68;;;1.48;;
39324;SDS011;25037;49.488;9.900;2023-06-04T01:15:00;6.30;;;2.10;;
39324;SDS011;25037;49.488;9.900;2023-06-04T01:17:37;4.53;;;2.00;;
39324;SDS011;25037;49.488;9.900;2023-06-04T01:20:12;3.00;;;1.27;;
39324;SDS011;25037;49.488;9.900;2023-06-04T01:25:25;4.22;;;1.70;;
39324;SDS011;25037;49.488;9.900;2023-06-04T01:27:54;4.22;;;1.58;;
39324;SDS011;25037;49.488;9.900;2023-06-04T01:30:24;4.55;;;1.23;;
39324;SDS011;25037;49.488;9.900;2023-06-04T01:32:54;3.80;;;2.10;;
39324;SDS011;25037;49.488;9.900;2023-06-04T01:35:22;5.28;;;1.48;;
39324;SDS011;25037;49.488;9.900;2023-06-04T01:37:53;3.67;;;2.05;;
39324;SDS011;25037;49.488;9.900;2023-06-04T01:40:21;4.97;;;1.88;;
39324;SDS011;25037;49.488;9.900;2023-06-04T01:42:50;5.03;;;1.90;;
39324;SDS011;25037;49.488;9.900;2023-06-04T01:45:16;4.25;;;1.77;;
39324;SDS011;25037;49.488;9.900;2023-06-04T01:50:10;4.22;;;1.98;;
39324;SDS011;25037;49.488;9.900;2023-06-04T01:52:37;3.80;;;1.95;;
39324;SDS011;25037;49.488;9.900;2023-06-04T01:55:05;3.65;;;1.35;;
39324;SDS011;25037;49.488;9.900;2023-06-04T01:57:34;5.40;;;0.95;;
39324;SDS011;25037;49.488;9.900;2023-06-04T02:00:05;6.18;;;1.98;;
39324;SDS011;25037;49.488;9.900;2023-06-04T02:02:35;5.32;;;1.80;;
39324;SDS011;25037;49.488;9.900;2023-06-04T02:05:05;4.68;;;2.40;;
39324;SDS011;25037;49.488;9.900;2023-06-04T02:07:37;4.63;;;1.80;;
39324;SDS011;25037;49.488;9.900;2023-06-04T02:12:32;4.35;;;1.83;;
39324;SDS011;25037;49.488;9.900;2023-06-04T02:14:59;3.28;;;1.63;;
39324;SDS011;25037;49.488;9.900;2023-06-04T02:17:26;5.88;;;1.90;;
39324;SDS011;25037;49.488;9.900;2023-06-04T02:19:52;3.88;;;1.92;;
39324;SDS011;25037;49.488;9.900;2023-06-04T02:22:20;5.35;;;2.00;;
39324;SDS011;25037;49.488;9.900;2023-06-04T02:24:47;3.58;;;2.40;;
39324;SDS011;25037;49.488;9.900;2023-06-04T02:27:14;4.40;;;2.10;;
39324;SDS011;25037;49.488;9.900;2023-06-04T02:29:41;3.88;;;1.85;;
39324;SDS011;25037;49.488;9.900;2023-06-04T02:34:35;5.63;;;1.98;;
39324;SDS011;25037;49.488;9.900;2023-06-04T02:37:02;3.67;;;2.00;;
39324;SDS011;25037;49.488;9.900;2023-06-04T02:39:29;5.47;;;2.40;;
39324;SDS011;25037;49.488;9.900;2023-06-04T02:44:23;4.35;;;2.00;;
39324;SDS011;25037;49.488;9.900;2023-06-04T02:46:52;3.58;;;1.40;;
39324;SDS011;25037;49.488;9.900;2023-06-04T02:51:46;3.90;;;1.70;;
39324;SDS011;25037;49.488;9.900;2023-06-04T02:54:12;3.22;;;1.63;;
39324;SDS011;25037;49.488;9.900;2023-06-04T02:56:39;4.05;;;1.73;;
39324;SDS011;25037;49.488;9.900;2023-06-04T02:59:06;5.03;;;1.85;;
39324;SDS011;25037;49.488;9.900;2023-06-04T03:01:38;3.38;;;1.80;;
39324;SDS011;25037;49.488;9.900;2023-06-04T03:04:05;3.67;;;1.52;;
39324;SDS011;25037;49.488;9.900;2023-06-04T03:06:36;3.33;;;1.70;;
39324;SDS011;25037;49.488;9.900;2023-06-04T03:09:06;5.88;;;1.80;;
39324;SDS011;25037;49.488;9.900;2023-06-04T03:11:33;3.35;;;1.65;;
39324;SDS011;25037;49.488;9.900;2023-06-04T03:14:00;3.00;;;1.35;;
39324;SDS011;25037;49.488;9.900;2023-06-04T03:16:27;4.05;;;1.65;;
39324;SDS011;25037;49.488;9.900;2023-06-04T03:21:20;4.65;;;1.70;;
39324;SDS011;25037;49.488;9.900;2023-06-04T03:23:47;3.50;;;1.73;;
39324;SDS011;25037;49.488;9.900;2023-06-04T03:26:14;5.20;;;1.55;;
39324;SDS011;25037;49.488;9.900;2023-06-04T03:31:08;3.45;;;1.70;;
39324;SDS011;25037;49.488;9.900;2023-06-04T03:33:35;4.50;;;1.58;;
39324;SDS011;25037;49.488;9.900;2023-06-04T03:36:01;2.45;;;1.30;;
39324;SDS011;25037;49.488;9.900;2023-06-04T03:38:28;3.20;;;1.50;;
39324;SDS011;25037;49.488;9.900;2023-06-04T03:43:22;4.68;;;1.63;;
39324;SDS011;25037;49.488;9.900;2023-06-04T03:45:49;4.72;;;1.38;;
39324;SDS011;25037;49.488;9.900;2023-06-04T03:48:15;6.03;;;1.65;;
39324;SDS011;25037;49.488;9.900;2023-06-04T03:50:42;3.45;;;1.45;;
39324;SDS011;25037;49.488;9.900;2023-06-04T03:53:12;3.53;;;1.27;;
39324;SDS011;25037;49.488;9.900;2023-06-04T03:58:05;3.55;;;1.42;;
39324;SDS011;25037;49.488;9.900;2023-06-04T04:00:35;4.68;;;1.60;;
39324;SDS011;25037;49.488;9.900;2023-06-04T04:03:02;3.33;;;1.50;;
39324;SDS011;25037;49.488;9.900;2023-06-04T04:05:29;3.53;;;1.30;;
39324;SDS011;25037;49.488;9.900;2023-06-04T04:07:57;3.92;;;1.52;;
39324;SDS011;25037;49.488;9.900;2023-06-04T04:10:23;4.72;;;1.50;;
39324;SDS011;25037;49.488;9.900;2023-06-04T04:12:50;4.57;;;1.67;;
39324;SDS011;25037;49.488;9.900;2023-06-04T04:15:17;3.88;;;1.90;;
39324;SDS011;25037;49.488;9.900;2023-06-04T04:17:44;4.15;;;1.55;;
39324;SDS011;25037;49.488;9.900;2023-06-04T04:20:11;6.22;;;1.50;;
39324;SDS011;25037;49.488;9.900;2023-06-04T04:22:41;3.92;;;2.00;;
39324;SDS011;25037;49.488;9.900;2023-06-04T04:25:08;4.05;;;1.77;;
39324;SDS011;25037;49.488;9.900;2023-06-04T04:27:35;5.40;;;2.28;;
39324;SDS011;25037;49.488;9.900;2023-06-04T04:30:05;4.28;;;1.83;;
39324;SDS011;25037;49.488;9.900;2023-06-04T04:32:32;4.03;;;1.92;;
39324;SDS011;25037;49.488;9.900;2023-06-04T04:34:59;3.78;;;2.00;;
39324;SDS011;25037;49.488;9.900;2023-06-04T04:37:26;6.68;;;1.60;;
39324;SDS011;25037;49.488;9.900;2023-06-04T04:42:19;4.13;;;1.75;;
39324;SDS011;25037;49.488;9.900;2023-06-04T04:44:47;4.20;;;2.15;;
39324;SDS011;25037;49.488;9.900;2023-06-04T04:47:15;6.20;;;2.00;;
39324;SDS011;25037;49.488;9.900;2023-06-04T04:49:42;5.72;;;2.60;;
39324;SDS011;25037;49.488;9.900;2023-06-04T04:52:08;3.72;;;1.60;;
39324;SDS011;25037;49.488;9.900;2023-06-04T04:54:35;4.20;;;2.28;;
39324;SDS011;25037;49.488;9.900;2023-06-04T04:57:02;3.30;;;2.13;;
39324;SDS011;25037;49.488;9.900;2023-06-04T04:59:39;4.93;;;2.15;;
39324;SDS011;25037;49.488;9.900;2023-06-04T05:02:06;5.70;;;2.72;;
39324;SDS011;25037;49.488;9.900;2023-06-04T05:04:33;4.95;;;1.70;;
39324;SDS011;25037;49.488;9.900;2023-06-04T05:07:00;4.03;;;2.38;;
39324;SDS011;25037;49.488;9.900;2023-06-04T05:09:26;5.38;;;2.42;;
39324;SDS011;25037;49.488;9.900;2023-06-04T05:11:53;4.22;;;2.50;;
39324;SDS011;25037;49.488;9.900;2023-06-04T05:14:20;3.78;;;2.53;;
39324;SDS011;25037;49.488;9.900;2023-06-04T05:16:46;3.90;;;2.85;;
39324;SDS011;25037;49.488;9.900;2023-06-04T05:19:15;4.47;;;2.65;;
39324;SDS011;25037;49.488;9.900;2023-06-04T05:21:43;4.65;;;2.92;;
39324;SDS011;25037;49.488;9.900;2023-06-04T05:24:10;5.90;;;2.25;;
39324;SDS011;25037;49.488;9.900;2023-06-04T05:26:37;4.38;;;2.22;;
39324;SDS011;25037;49.488;9.900;2023-06-04T05:29:05;3.67;;;2.17;;
39324;SDS011;25037;49.488;9.900;2023-06-04T05:31:32;3.75;;;2.53;;
39324;SDS011;25037;49.488;9.900;2023-06-04T05:34:01;3.22;;;2.05;;
39324;SDS011;25037;49.488;9.900;2023-06-04T05:36:28;3.33;;;2.03;;
39324;SDS011;25037;49.488;9.900;2023-06-04T05:38:56;3.30;;;2.10;;
39324;SDS011;25037;49.488;9.900;2023-06-04T05:41:26;4.03;;;2.55;;
39324;SDS011;25037;49.488;9.900;2023-06-04T05:43:53;4.65;;;3.08;;
39324;SDS011;25037;49.488;9.900;2023-06-04T05:46:21;5.68;;;2.63;;
39324;SDS011;25037;49.488;9.900;2023-06-04T05:48:48;6.57;;;2.55;;
39324;SDS011;25037;49.488;9.900;2023-06-04T05:51:15;3.58;;;3.28;;
39324;SDS011;25037;49.488;9.900;2023-06-04T05:53:42;5.65;;;4.00;;
39324;SDS011;25037;49.488;9.900;2023-06-04T05:56:08;4.68;;;3.65;;
39324;SDS011;25037;49.488;9.900;2023-06-04T05:58:35;6.43;;;4.78;;
39324;SDS011;25037;49.488;9.900;2023-06-04T06:01:02;4.30;;;3.58;;
39324;SDS011;25037;49.488;9.900;2023-06-04T06:03:29;9.18;;;3.42;;
39324;SDS011;25037;49.488;9.900;2023-06-04T06:05:57;5.70;;;5.20;;
39324;SDS011;25037;49.488;9.900;2023-06-04T06:08:24;7.75;;;5.88;;
39324;SDS011;25037;49.488;9.900;2023-06-04T06:10:51;5.97;;;5.47;;
39324;SDS011;25037;49.488;9.900;2023-06-04T06:13:18;6.15;;;5.22;;
39324;SDS011;25037;49.488;9.900;2023-06-04T06:15:45;5.75;;;5.35;;
39324;SDS011;25037;49.488;9.900;2023-06-04T06:18:14;4.85;;;4.28;;
39324;SDS011;25037;49.488;9.900;2023-06-04T06:20:41;3.58;;;3.17;;
39324;SDS011;25037;49.488;9.900;2023-06-04T06:23:08;4.70;;;4.20;;
39324;SDS011;25037;49.488;9.900;2023-06-04T06:25:35;4.85;;;4.38;;
39324;SDS011;25037;49.488;9.900;2023-06-04T06:28:02;4.32;;;3.92;;
39324;SDS011;25037;49.488;9.900;2023-06-04T06:30:28;4.50;;;3.55;;
39324;SDS011;25037;49.488;9.900;2023-06-04T06:32:55;6.13;;;3.40;;
39324;SDS011;25037;49.488;9.900;2023-06-04T06:35:22;3.95;;;2.83;;
39324;SDS011;25037;49.488;9.900;2023-06-04T06:37:49;6.97;;;2.92;;
39324;SDS011;25037;49.488;9.900;2023-06-04T06:40:16;4.28;;;2.33;;
39324;SDS011;25037;49.488;9.900;2023-06-04T06:42:47;4.25;;;2.83;;
39324;SDS011;25037;49.488;9.900;2023-06-04T06:45:15;4.20;;;2.47;;
39324;SDS011;25037;49.488;9.900;2023-06-04T06:47:41;3.22;;;2.40;;
39324;SDS011;25037;49.488;9.900;2023-06-04T06:50:08;4.88;;;1.90;;
39324;SDS011;25037;49.488;9.900;2023-06-04T06:52:37;5.50;;;2.28;;
39324;SDS011;25037;49.488;9.900;2023-06-04T06:55:04;5.25;;;2.35;;
39324;SDS011;25037;49.488;9.900;2023-06-04T06:57:31;3.47;;;1.55;;
39324;SDS011;25037;49.488;9.900;2023-06-04T06:59:59;4.53;;;2.13;;
39324;SDS011;25037;49.488;9.900;2023-06-04T07:02:26;4.00;;;2.08;;
39324;SDS011;25037;49.488;9.900;2023-06-04T07:04:53;5.70;;;2.20;;
39324;SDS011;25037;49.488;9.900;2023-06-04T07:07:20;5.20;;;1.92;;
39324;SDS011;25037;49.488;9.900;2023-06-04T07:09:46;4.75;;;2.25;;
39324;SDS011;25037;49.488;9.900;2023-06-04T07:12:13;5.68;;;1.63;;
39324;SDS011;25037;49.488;9.900;2023-06-04T07:14:40;3.78;;;2.13;;
39324;SDS011;25037;49.488;9.900;2023-06-04T07:17:06;4.53;;;2.20;;
39324;SDS011;25037;49.488;9.900;2023-06-04T07:19:34;2.85;;;1.30;;
39324;SDS011;25037;49.488;9.900;2023-06-04T07:22:00;5.00;;;2.22;;
39324;SDS011;25037;49.488;9.900;2023-06-04T07:24:27;3.67;;;1.95;;
39324;SDS011;25037;49.488;9.900;2023-06-04T07:26:54;3.50;;;2.38;;
39324;SDS011;25037;49.488;9.900;2023-06-04T07:29:20;5.28;;;2.10;;
39324;SDS011;25037;49.488;9.900;2023-06-04T07:31:47;3.38;;;2.38;;
39324;SDS011;25037;49.488;9.900;2023-06-04T07:34:14;4.53;;;1.70;;
39324;SDS011;25037;49.488;9.900;2023-06-04T07:36:41;6.50;;;2.10;;
39324;SDS011;25037;49.488;9.900;2023-06-04T07:39:07;5.65;;;2.03;;
39324;SDS011;25037;49.488;9.900;2023-06-04T07:41:34;3.70;;;2.15;;
39324;SDS011;25037;49.488;9.900;2023-06-04T07:44:01;3.35;;;2.15;;
39324;SDS011;25037;49.488;9.900;2023-06-04T07:46:27;4.57;;;1.83;;
39324;SDS011;25037;49.488;9.900;2023-06-04T07:48:54;5.50;;;1.67;;
39324;SDS011;25037;49.488;9.900;2023-06-04T07:51:21;7.90;;;1.70;;
39324;SDS011;25037;49.488;9.900;2023-06-04T07:53:49;3.70;;;1.92;;
39324;SDS011;25037;49.488;9.900;2023-06-04T07:56:15;5.75;;;2.22;;
39324;SDS011;25037;49.488;9.900;2023-06-04T07:58:43;3.97;;;1.88;;
39324;SDS011;25037;49.488;9.900;2023-06-04T08:01:11;3.72;;;1.77;;
39324;SDS011;25037;49.488;9.900;2023-06-04T08:03:38;4.05;;;1.80;;
39324;SDS011;25037;49.488;9.900;2023-06-04T08:06:07;5.65;;;2.05;;
39324;SDS011;25037;49.488;9.900;2023-06-04T08:08:33;4.28;;;1.95;;
39324;SDS011;25037;49.488;9.900;2023-06-04T08:11:00;4.38;;;1.90;;
39324;SDS011;25037;49.488;9.900;2023-06-04T08:13:27;4.40;;;2.42;;
39324;SDS011;25037;49.488;9.900;2023-06-04T08:15:53;6.78;;;1.52;;
39324;SDS011;25037;49.488;9.900;2023-06-04T08:18:20;5.18;;;1.67;;
39324;SDS011;25037;49.488;9.900;2023-06-04T08:20:47;3.50;;;1.77;;
39324;SDS011;25037;49.488;9.900;2023-06-04T08:23:14;4.28;;;1.92;;
39324;SDS011;25037;49.488;9.900;2023-06-04T08:25:40;3.78;;;1.67;;
39324;SDS011;25037;49.488;9.900;2023-06-04T08:28:07;4.47;;;2.10;;
39324;SDS011;25037;49.488;9.900;2023-06-04T08:30:35;3.78;;;1.88;;
39324;SDS011;25037;49.488;9.900;2023-06-04T08:33:02;3.83;;;1.73;;
39324;SDS011;25037;49.488;9.900;2023-06-04T08:35:29;3.53;;;1.63;;
39324;SDS011;25037;49.488;9.900;2023-06-04T08:37:55;2.70;;;1.52;;
39324;SDS011;25037;49.488;9.900;2023-06-04T08:40:22;3.65;;;1.67;;
39324;SDS011;25037;49.488;9.900;2023-06-04T08:42:49;6.53;;;1.83;;
39324;SDS011;25037;49.488;9.900;2023-06-04T08:45:17;5.72;;;1.98;;
39324;SDS011;25037;49.488;9.900;2023-06-04T08:47:49;5.80;;;2.05;;
39324;SDS011;25037;49.488;9.900;2023-06-04T08:50:18;3.60;;;1.83;;
39324;SDS011;25037;49.488;9.900;2023-06-04T08:52:47;6.13;;;1.88;;
39324;SDS011;25037;49.488;9.900;2023-06-04T08:55:18;4.45;;;1.73;;
39324;SDS011;25037;49.488;9.900;2023-06-04T08:57:45;7.25;;;1.45;;
39324;SDS011;25037;49.488;9.900;2023-06-04T09:00:13;3.78;;;2.22;;
39324;SDS011;25037;49.488;9.900;2023-06-04T09:02:40;3.20;;;1.90;;
39324;SDS011;25037;49.488;9.900;2023-06-04T09:05:07;5.55;;;2.40;;
39324;SDS011;25037;49.488;9.900;2023-06-04T09:07:39;4.10;;;1.45;;
39324;SDS011;25037;49.488;9.900;2023-06-04T09:10:08;7.20;;;2.08;;
39324;SDS011;25037;49.488;9.900;2023-06-04T09:12:42;3.50;;;1.95;;
39324;SDS011;25037;49.488;9.900;2023-06-04T09:15:12;4.82;;;1.42;;
39324;SDS011;25037;49.488;9.900;2023-06-04T09:17:39;3.88;;;1.90;;
39324;SDS011;25037;49.488;9.900;2023-06-04T09:20:06;4.57;;;1.83;;
39324;SDS011;25037;49.488;9.900;2023-06-04T09:22:37;6.20;;;2.22;;
39324;SDS011;25037;49.488;9.900;2023-06-04T09:25:05;3.17;;;1.23;;
39324;SDS011;25037;49.488;9.900;2023-06-04T09:27:37;3.75;;;1.60;;
39324;SDS011;25037;49.488;9.900;2023-06-04T09:30:08;4.57;;;2.20;;
39324;SDS011;25037;49.488;9.900;2023-06-04T09:32:35;4.05;;;1.85;;
39324;SDS011;25037;49.488;9.900;2023-06-04T09:35:12;3.53;;;1.33;;
39324;SDS011;25037;49.488;9.900;2023-06-04T09:37:40;6.47;;;1.70;;
39324;SDS011;25037;49.488;9.900;2023-06-04T09:40:09;6.43;;;2.35;;
39324;SDS011;25037;49.488;9.900;2023-06-04T09:45:26;6.97;;;2.03;;
39324;SDS011;25037;49.488;9.900;2023-06-04T09:47:54;6.20;;;2.05;;
39324;SDS011;25037;49.488;9.900;2023-06-04T09:50:29;6.28;;;2.15;;
39324;SDS011;25037;49.488;9.900;2023-06-04T09:53:00;4.32;;;1.85;;
39324;SDS011;25037;49.488;9.900;2023-06-04T09:55:29;5.60;;;1.73;;
39324;SDS011;25037;49.488;9.900;2023-06-04T09:57:55;5.10;;;1.73;;
39324;SDS011;25037;49.488;9.900;2023-06-04T10:00:25;4.18;;;1.95;;
39324;SDS011;25037;49.488;9.900;2023-06-04T10:02:56;3.75;;;1.60;;
39324;SDS011;25037;49.488;9.900;2023-06-04T10:05:24;3.30;;;1.52;;
39324;SDS011;25037;49.488;9.900;2023-06-04T10:07:52;3.38;;;1.85;;
39324;SDS011;25037;49.488;9.900;2023-06-04T10:10:24;4.07;;;1.92;;
39324;SDS011;25037;49.488;9.900;2023-06-04T10:13:00;3.95;;;2.22;;
39324;SDS011;25037;49.488;9.900;2023-06-04T10:15:30;4.40;;;1.95;;
39324;SDS011;25037;49.488;9.900;2023-06-04T10:17:59;4.28;;;1.55;;
39324;SDS011;25037;49.488;9.900;2023-06-04T10:20:28;3.90;;;1.70;;
39324;SDS011;25037;49.488;9.900;2023-06-04T10:22:56;2.72;;;1.48;;
39324;SDS011;25037;49.488;9.900;2023-06-04T10:25:24;14.45;;;2.65;;
39324;SDS011;25037;49.488;9.900;2023-06-04T10:27:53;6.35;;;1.77;;
39324;SDS011;25037;49.488;9.900;2023-06-04T10:30:20;4.38;;;1.80;;
39324;SDS011;25037;49.488;9.900;2023-06-04T10:32:46;6.00;;;1.75;;
39324;SDS011;25037;49.488;9.900;2023-06-04T10:35:13;2.85;;;1.60;;
39324;SDS011;25037;49.488;9.900;2023-06-04T10:37:41;4.00;;;1.85;;
39324;SDS011;25037;49.488;9.900;2023-06-04T10:40:09;2.65;;;1.38;;
39324;SDS011;25037;49.488;9.900;2023-06-04T10:42:40;4.05;;;1.85;;
39324;SDS011;25037;49.488;9.900;2023-06-04T10:45:08;2.67;;;1.80;;
39324;SDS011;25037;49.488;9.900;2023-06-04T10:47:36;5.07;;;1.90;;
39324;SDS011;25037;49.488;9.900;2023-06-04T10:50:08;3.83;;;1.77;;
39324;SDS011;25037;49.488;9.900;2023-06-04T10:52:50;3.50;;;1.30;;
39324;SDS011;25037;49.488;9.900;2023-06-04T10:55:21;4.20;;;1.75;;
39324;SDS011;25037;49.488;9.900;2023-06-04T10:57:52;3.80;;;1.95;;
39324;SDS011;25037;49.488;9.900;2023-06-04T11:00:18;2.90;;;1.55;;
39324;SDS011;25037;49.488;9.900;2023-06-04T11:02:50;3.17;;;2.45;;
39324;SDS011;25037;49.488;9.900;2023-06-04T11:05:17;4.28;;;2.05;;
39324;SDS011;25037;49.488;9.900;2023-06-04T11:07:48;4.50;;;1.95;;
39324;SDS011;25037;49.488;9.900;2023-06-04T11:10:16;5.43;;;1.70;;
39324;SDS011;25037;49.488;9.900;2023-06-04T11:12:47;4.65;;;1.80;;
39324;SDS011;25037;49.488;9.900;2023-06-04T11:15:16;3.95;;;1.63;;
39324;SDS011;25037;49.488;9.900;2023-06-04T11:17:53;4.47;;;1.98;;
39324;SDS011;25037;49.488;9.900;2023-06-04T11:20:21;3.95;;;1.85;;
39324;SDS011;25037;49.488;9.900;2023-06-04T11:22:50;3.75;;;1.98;;
39324;SDS011;25037;49.488;9.900;2023-06-04T11:25:17;3.97;;;1.85;;
39324;SDS011;25037;49.488;9.900;2023-06-04T11:27:45;3.03;;;1.70;;
39324;SDS011;25037;49.488;9.900;2023-06-04T11:30:11;3.45;;;1.38;;
39324;SDS011;25037;49.488;9.900;2023-06-04T11:32:39;5.10;;;1.90;;
39324;SDS011;25037;49.488;9.900;2023-06-04T11:35:06;3.33;;;1.60;;
39324;SDS011;25037;49.488;9.900;2023-06-04T11:37:34;4.75;;;1.60;;
39324;SDS011;25037;49.488;9.900;2023-06-04T11:40:01;6.18;;;2.05;;
39324;SDS011;25037;49.488;9.900;2023-06-04T11:42:31;7.38;;;2.10;;
39324;SDS011;25037;49.488;9.900;2023-06-04T11:44:58;3.97;;;1.85;;
39324;SDS011;25037;49.488;9.900;2023-06-04T11:47:25;2.92;;;1.85;;
39324;SDS011;25037;49.488;9.900;2023-06-04T11:49:55;4.20;;;2.00;;
39324;SDS011;25037;49.488;9.900;2023-06-04T11:52:22;3.85;;;1.80;;
39324;SDS011;25037;49.488;9.900;2023-06-04T11:54:49;5.88;;;1.50;;
39324;SDS011;25037;49.488;9.900;2023-06-04T11:57:16;3.30;;;1.60;;
39324;SDS011;25037;49.488;9.900;2023-06-04T11:59:44;4.43;;;1.67;;
39324;SDS011;25037;49.488;9.900;2023-06-04T12:02:11;3.65;;;2.25;;
39324;SDS011;25037;49.488;9.900;2023-06-04T12:04:38;2.80;;;1.70;;
39324;SDS011;25037;49.488;9.900;2023-06-04T12:07:04;3.47;;;1.65;;
39324;SDS011;25037;49.488;9.900;2023-06-04T12:09:32;3.45;;;1.73;;
39324;SDS011;25037;49.488;9.900;2023-06-04T12:12:05;5.60;;;2.42;;
39324;SDS011;25037;49.488;9.900;2023-06-04T12:14:33;2.75;;;1.77;;
39324;SDS011;25037;49.488;9.900;2023-06-04T12:17:01;5.93;;;2.15;;
39324;SDS011;25037;49.488;9.900;2023-06-04T12:19:32;4.00;;;1.83;;
39324;SDS011;25037;49.488;9.900;2023-06-04T12:24:31;3.22;;;2.03;;
39324;SDS011;25037;49.488;9.900;2023-06-04T12:27:04;5.18;;;2.38;;
39324;SDS011;25037;49.488;9.900;2023-06-04T12:29:32;3.65;;;1.67;;
39324;SDS011;25037;49.488;9.900;2023-06-04T12:34:38;3.67;;;1.80;;
39324;SDS011;25037;49.488;9.900;2023-06-04T12:37:08;3.45;;;1.60;;
39324;SDS011;25037;49.488;9.900;2023-06-04T12:39:35;3.08;;;1.88;;
39324;SDS011;25037;49.488;9.900;2023-06-04T12:42:05;4.35;;;2.00;;
39324;SDS011;25037;49.488;9.900;2023-06-04T12:44:38;3.72;;;1.60;;
39324;SDS011;25037;49.488;9.900;2023-06-04T12:47:06;3.35;;;1.90;;
39324;SDS011;25037;49.488;9.900;2023-06-04T12:49:34;4.80;;;2.20;;
39324;SDS011;25037;49.488;9.900;2023-06-04T12:52:01;2.97;;;1.90;;
39324;SDS011;25037;49.488;9.900;2023-06-04T12:54:27;4.03;;;2.05;;
39324;SDS011;25037;49.488;9.900;2023-06-04T12:56:54;4.72;;;1.75;;
39324;SDS011;25037;49.488;9.900;2023-06-04T12:59:23;4.10;;;1.70;;
39324;SDS011;25037;49.488;9.900;2023-06-04T13:01:53;4.50;;;2.13;;
39324;SDS011;25037;49.488;9.900;2023-06-04T13:04:21;5.90;;;2.25;;
39324;SDS011;25037;49.488;9.900;2023-06-04T13:06:49;4.50;;;1.77;;
39324;SDS011;25037;49.488;9.900;2023-06-04T13:09:18;3.33;;;2.05;;
39324;SDS011;25037;49.488;9.900;2023-06-04T13:11:46;3.28;;;2.13;;
39324;SDS011;25037;49.488;9.900;2023-06-04T13:14:13;5.32;;;2.10;;
39324;SDS011;25037;49.488;9.900;2023-06-04T13:16:40;4.88;;;2.25;;
39324;SDS011;25037;49.488;9.900;2023-06-04T13:19:07;4.75;;;2.28;;
39324;SDS011;25037;49.488;9.900;2023-06-04T13:21:34;3.70;;;1.73;;
39324;SDS011;25037;49.488;9.900;2023-06-04T13:24:02;3.60;;;2.20;;
39324;SDS011;25037;49.488;9.900;2023-06-04T13:26:29;3.55;;;2.00;;
39324;SDS011;25037;49.488;9.900;2023-06-04T13:28:56;3.60;;;2.00;;
39324;SDS011;25037;49.488;9.900;2023-06-04T13:31:22;4.55;;;2.00;;
39324;SDS011;25037;49.488;9.900;2023-06-04T13:33:49;4.60;;;1.83;;
39324;SDS011;25037;49.488;9.900;2023-06-04T13:36:16;5.00;;;2.15;;
39324;SDS011;25037;49.488;9.900;2023-06-04T13:38:42;4.47;;;1.98;;
39324;SDS011;25037;49.488;9.900;2023-06-04T13:41:09;3.70;;;1.88;;
39324;SDS011;25037;49.488;9.900;2023-06-04T13:43:36;3.38;;;1.67;;
39324;SDS011;25037;49.488;9.900;2023-06-04T13:46:03;3.83;;;1.65;;
39324;SDS011;25037;49.488;9.900;2023-06-04T13:48:30;5.10;;;2.20;;
39324;SDS011;25037;49.488;9.900;2023-06-04T13:50:57;3.00;;;1.60;;
39324;SDS011;25037;49.488;9.900;2023-06-04T13:53:23;5.78;;;2.25;;
39324;SDS011;25037;49.488;9.900;2023-06-04T13:55:50;4.22;;;2.03;;
39324;SDS011;25037;49.488;9.900;2023-06-04T13:58:24;6.13;;;2.13;;
39324;SDS011;25037;49.488;9.900;2023-06-04T14:00:52;3.33;;;1.88;;
39324;SDS011;25037;49.488;9.900;2023-06-04T14:03:19;4.68;;;2.08;;
39324;SDS011;25037;49.488;9.900;2023-06-04T14:05:46;6.25;;;2.05;;
39324;SDS011;25037;49.488;9.900;2023-06-04T14:08:13;4.43;;;2.38;;
39324;SDS011;25037;49.488;9.900;2023-06-04T14:10:40;5.00;;;1.73;;
39324;SDS011;25037;49.488;9.900;2023-06-04T14:13:07;3.47;;;2.38;;
39324;SDS011;25037;49.488;9.900;2023-06-04T14:15:34;4.20;;;1.92;;
39324;SDS011;25037;49.488;9.900;2023-06-04T14:18:01;4.43;;;2.10;;
39324;SDS011;25037;49.488;9.900;2023-06-04T14:20:28;4.43;;;1.55;;
39324;SDS011;25037;49.488;9.900;2023-06-04T14:22:55;3.92;;;2.20;;
39324;SDS011;25037;49.488;9.900;2023-06-04T14:25:22;3.65;;;1.50;;
39324;SDS011;25037;49.488;9.900;2023-06-04T14:27:49;4.28;;;1.98;;
39324;SDS011;25037;49.488;9.900;2023-06-04T14:30:16;3.15;;;1.90;;
39324;SDS011;25037;49.488;9.900;2023-06-04T14:32:43;3.90;;;2.25;;
39324;SDS011;25037;49.488;9.900;2023-06-04T14:35:10;3.35;;;2.00;;
39324;SDS011;25037;49.488;9.900;2023-06-04T14:37:36;4.72;;;1.63;;
39324;SDS011;25037;49.488;9.900;2023-06-04T14:40:03;3.63;;;2.08;;
39324;SDS011;25037;49.488;9.900;2023-06-04T14:42:31;3.05;;;1.45;;
39324;SDS011;25037;49.488;9.900;2023-06-04T14:44:57;4.55;;;1.77;;
39324;SDS011;25037;49.488;9.900;2023-06-04T14:47:24;5.20;;;2.00;;
39324;SDS011;25037;49.488;9.900;2023-06-04T14:49:51;5.75;;;2.05;;
39324;SDS011;25037;49.488;9.900;2023-06-04T14:52:17;4.22;;;2.25;;
39324;SDS011;25037;49.488;9.900;2023-06-04T14:54:44;3.97;;;1.77;;
39324;SDS011;25037;49.488;9.900;2023-06-04T14:57:11;4.38;;;1.70;;
39324;SDS011;25037;49.488;9.900;2023-06-04T14:59:40;4.03;;;1.73;;
39324;SDS011;25037;49.488;9.900;2023-06-04T15:02:09;5.30;;;2.10;;
39324;SDS011;25037;49.488;9.900;2023-06-04T15:04:36;4.78;;;1.88;;
39324;SDS011;25037;49.488;9.900;2023-06-04T15:07:10;3.50;;;2.00;;
39324;SDS011;25037;49.488;9.900;2023-06-04T15:09:37;3.40;;;2.05;;
39324;SDS011;25037;49.488;9.900;2023-06-04T15:12:03;3.97;;;1.77;;
39324;SDS011;25037;49.488;9.900;2023-06-04T15:14:30;3.53;;;2.03;;
39324;SDS011;25037;49.488;9.900;2023-06-04T15:16:57;3.78;;;2.00;;
39324;SDS011;25037;49.488;9.900;2023-06-04T15:19:24;3.70;;;2.08;;
39324;SDS011;25037;49.488;9.900;2023-06-04T15:21:51;6.30;;;2.28;;
39324;SDS011;25037;49.488;9.900;2023-06-04T15:24:17;3.35;;;1.50;;
39324;SDS011;25037;49.488;9.900;2023-06-04T15:26:45;3.35;;;2.10;;
39324;SDS011;25037;49.488;9.900;2023-06-04T15:29:11;4.68;;;2.10;;